x

Santa Maria - 21nm Nw Of Point Arguello, Ca (46011) Wave Buoy

8:50pm - Sat 19th Jan 2019 All times are PST. -8 hours from GMT.

  • Sig Wave height 7.9ft
  • Swell Direction
  • Peak Period 13s
  • Average Period 9s
  • Wind
    11mph, 16mph gusts
  • Sea Temp 58°f
  • Air Temp 59°f
  • Sea Pressure 1021.6mb
  • Santa Maria - 21nm Nw Of Point Arguello, Ca
  • Santa Maria - 21nm Nw Of Point Arguello, Ca

More Historic Weather Station data

Upgrade to MSW Pro to gain access to the past 30 days of data for over 8000 Wavebouys and Weather Stations around the globe.

Join

Comparision Forecast

View Surf forecast
   
Sat 01/19 8:50pm 8ft 13s 9s 11 16 mph 1021.6mb 58f 59f
7:50pm 7.5ft 11s 8s 16 18 mph 1021.9mb 58f 59f
6:50pm 7.5ft 12s 8s 18 22 mph 1021.9mb 58f 59f
5:50pm 7.5ft 12s 8s 18 20 mph 1022.1mb 58f 60f
4:50pm 7ft 11s 8s 16 20 mph 1022.2mb 59f 60f
3:50pm 8.5ft 13s 9s 16 18 mph 1022.6mb 59f 60f
2:50pm 8ft 12s 9s 13 16 mph 1023.1mb 58f 61f
1:50pm 8ft 12s 9s 11 13 mph 1023.8mb 58f 60f
12:50pm 8ft 12s 9s 7 9 mph 1025mb 58f 60f
11:50am 9ft 12s 9s 11 13 mph 1026mb 58f 60f
10:50am 7.5ft 11s 9s 11 13 mph 1026.8mb 58f 59f
9:50am 8.5ft 13s 9s 11 13 mph 1027.1mb 58f 59f
8:50am 8ft 12s 9s 11 13 mph 1026.3mb 57f 58f
7:50am 8.5ft 13s 9s 16 18 mph 1026.2mb 57f 59f
6:50am 10ft 12s 9s 13 16 mph 1026.2mb 57f 59f
5:50am 9ft 14s 8s 16 18 mph 1026.2mb 57f 59f
4:50am 10ft 13s 9s 18 22 mph 1025.8mb 57f 58f
3:50am 9ft 14s 9s 16 20 mph 1026mb 57f 58f
2:50am 9ft 13s 9s 13 18 mph 1026.7mb 57f 58f
1:50am 9.5ft 15s 9s 13 16 mph 1027mb 57f 58f
12:50am 10ft 14s 10s 13 16 mph 1027.2mb 57f 58f
Fri 01/18 11:50pm 10.5ft 13s 9s 13 16 mph 1027.6mb 57f 58f
10:50pm 11ft 14s 9s 11 13 mph 1027.6mb 58f 59f
9:50pm 12ft 15s 10s 16 20 mph 1027.6mb 58f 58f
8:50pm 12.5ft 13s 10s 13 18 mph 1027.3mb 58f 58f
7:50pm 13ft 11s 10s 11 13 mph 1027mb 58f 59f
6:50pm 13.5ft 14s 10s 13 18 mph 1026.6mb 59f 59f
5:50pm 13.5ft 14s 10s 16 18 mph 1025.8mb 59f 59f
4:50pm 14.5ft 14s 10s 13 18 mph 1025.4mb 59f 59f
3:50pm 14.5ft 14s 10s 13 18 mph 1025.3mb 59f 59f
2:50pm 15ft 14s 10s 13 20 mph 1025mb 59f 58f
1:50pm 13ft 14s 10s 11 16 mph 1025mb 59f 58f
12:50pm 15.5ft 15s 11s 13 18 mph 1025.3mb 58f 57f
11:50am 15ft 15s 11s 11 16 mph 1026.2mb 58f 57f
10:50am 15ft 15s 11s 11 16 mph 1026.7mb 58f 57f
9:50am 16.5ft 15s 11s 11 16 mph 1026.4mb 58f 57f
8:50am 14.5ft 15s 11s 11 13 mph 1025.7mb 58f 57f
7:50am 15.5ft 16s 11s 11 13 mph 1025.4mb 58f 56f
6:50am 14.5ft 16s 11s 9 13 mph 1024.8mb 58f 56f
5:50am 15.5ft 16s 11s 11 13 mph 1024mb 57f 56f
4:50am 15.5ft 16s 11s 11 13 mph 1024.1mb 57f 56f
3:50am 13.5ft 16s 10s 11 16 mph 1024.5mb 57f 56f
2:50am 18.5ft 16s 12s 9 13 mph 1024.7mb 58f 57f
1:50am 16.5ft 17s 11s 7 11 mph 1024.5mb 58f 57f
12:50am 17.5ft 16s 11s 4 9 mph 1024.3mb 58f 57f
Thu 01/17 11:50pm 18.5ft 16s 12s 4 9 mph 1024.8mb 58f 57f
10:50pm 19ft 15s 12s 4 9 mph 1024.4mb 58f 57f
9:50pm 20.5ft 17s 12s 4 11 mph 1024.1mb 58f 57f
8:50pm 20.5ft 17s 12s 9 13 mph 1023.3mb 58f 58f
7:50pm 19.5ft 17s 12s 7 11 mph 1022.8mb 58f 58f
6:50pm 20ft 17s 12s 7 11 mph 1022.1mb 58f 58f
5:50pm 20.5ft 17s 13s 7 9 mph 1021.6mb 58f 58f
4:50pm 21ft 17s 13s 4 9 mph 1021.2mb 58f 58f
3:50pm 22ft 19s 13s 7 11 mph 1021.1mb 58f 58f
2:50pm 22ft 16s 14s 9 11 mph 1020.9mb 58f 58f
1:50pm 18ft 19s 13s 9 11 mph 1019.9mb 57f 58f
12:50pm 14ft 19s 11s 4 7 mph 1020.1mb 57f 58f
11:50am 11ft 21s 9s 7 9 mph 1020.6mb 57f 58f
10:50am 9ft 16s 8s 7 9 mph 1020.9mb 57f 58f
9:50am 9ft 15s 8s 7 9 mph 1019.9mb 57f 58f
8:50am 10ft 16s 8s 7 9 mph 1018.7mb 57f 58f
7:50am 10ft 15s 8s 9 11 mph 1017.9mb 57f 58f
6:50am 9.5ft 10s 8s 9 11 mph 1017.2mb 57f 58f
5:50am 10.5ft 8s 7s 7 9 mph 1016.6mb 57f 58f
4:50am 10ft 15s 7s 9 11 mph 1015.9mb 57f 58f
3:50am 9.5ft 8s 7s 9 13 mph 1016mb 57f 58f
2:50am 9.5ft 15s 7s 16 20 mph 1015.8mb 57f 59f
1:50am 9.5ft 15s 6s 22 27 mph 1014.7mb 57f 59f
12:50am 9ft 14s 6s 27 31 mph 1013.9mb 57f 59f
Wed 01/16 11:50pm 9ft 16s 6s 29 36 mph 1014.3mb 57f 59f
10:50pm 8ft 15s 6s 27 34 mph 1015.5mb 57f 59f
9:50pm 9ft 14s 6s 27 31 mph 1016.1mb 57f 59f
8:50pm 8ft 14s 6s 29 34 mph 1015.5mb 57f 59f
7:50pm 8ft 6s 6s 27 34 mph 1015.9mb 57f 59f
6:50pm 8ft 15s 6s 27 34 mph 1014.8mb 57f 59f
5:50pm 8ft 14s 6s 27 34 mph 1014.8mb 57f 58f
4:50pm 8.5ft 15s 6s 29 38 mph 1015.2mb 57f 58f
3:50pm 8ft 15s 6s 29 34 mph 1016.1mb 57f 58f
2:50pm 8ft 15s 6s 29 38 mph 1016mb 57f 58f
1:50pm 8.5ft 15s 6s 29 36 mph 1015.9mb 57f 58f
12:50pm 9ft 14s 6s 25 29 mph 1017mb 57f 58f
11:50am 8.5ft 9s 6s 29 38 mph 1016.7mb 57f 58f
10:50am 9ft 15s 7s 25 29 mph 1018.4mb 57f 59f
9:50am 8ft 14s 7s 22 27 mph 1018.4mb 57f 59f
8:50am 10ft 15s 7s 22 27 mph 1017.2mb 57f 58f
7:50am 9ft 14s 7s 22 27 mph 1017.4mb 57f 58f
6:50am 8.5ft 16s 7s 22 27 mph 1017.3mb 57f 58f